Data for 04/24/2016

Time Sea-Level Adjusted Pressure Absolute Pressure Temperature Relative Humidity Dew Point   
(mb) (inHg) (mb) (inHg) (C) (F) (%) (C) (F)
00:05 1012 29.88 841 24.83 5.5 42 93 4.4 40
00:10 1012 29.88 841 24.83 5.5 42 93 4.4 40
00:15 1012 29.88 841 24.83 5.5 41.9 93 4.4 39.9
00:20 1012 29.88 841 24.83 5.5 41.8 93 4.4 40
00:25 1012 29.88 841 24.83 5.5 41.8 93 4.4 39.9
00:30 1012 29.88 841 24.83 5.6 42 93 4.5 40.1
00:35 1012 29.88 841 24.83 5.6 42.1 93 4.5 40.2
00:40 1012 29.88 841 24.83 5.6 42.2 93 4.5 40.2
00:45 1012 29.88 841 24.83 5.7 42.3 92 4.6 40.3
00:50 1012 29.88 841 24.83 5.6 42.1 92 4.5 40.1
00:55 1012 29.88 841 24.83 5.5 41.9 92 4.4 39.9
01:00 1012 29.88 841 24.83 5.4 41.8 92 4.3 39.7
01:05 1012 29.88 841 24.83 5.4 41.7 93 4.3 39.7
01:10 1012 29.88 841 24.83 5.4 41.7 93 4.3 39.7
01:15 1012 29.88 841 24.83 5.3 41.6 93 4.2 39.6
01:20 1012 29.88 841 24.83 5.3 41.6 93 4.2 39.6
01:25 1012 29.88 841 24.83 5.3 41.5 93 4.2 39.6
01:30 1012 29.88 841 24.83 5.2 41.4 93 4.1 39.4
01:35 1012 29.88 841 24.83 5.2 41.4 93 4.1 39.4
01:40 1012 29.88 841 24.83 5.2 41.3 93 4.1 39.3
01:45 1012 29.88 841 24.83 5.1 41.2 92 4 39.1
01:50 1012 29.88 841 24.83 5.1 41.1 92 3.9 39
01:55 1012 29.88 841 24.83 5 41.1 92 3.8 38.9
02:00 1012 29.88 841 24.83 5.1 41.1 92 3.8 38.9
02:05 1012 29.88 841 24.83 5 41 91 3.7 38.7
02:10 1012 29.88 841 24.83 4.9 40.9 91 3.5 38.4
02:15 1012 29.88 841 24.83 4.9 40.9 90 3.5 38.2
02:20 1012 29.88 841 24.83 4.9 40.9 89 3.3 37.9
02:25 1012 29.88 841 24.83 4.9 40.9 89 3.3 37.9
02:30 1012 29.88 841 24.83 4.9 40.9 89 3.2 37.8
02:35 1012 29.88 841 24.83 4.9 40.9 88 3.2 37.7
02:40 1012 29.88 841 24.83 4.9 40.9 88 3.2 37.8
02:45 1012 29.88 841 24.83 4.9 40.9 89 3.2 37.8
02:50 1012 29.88 841 24.83 5 40.9 89 3.2 37.8
02:55 1012 29.88 841 24.83 4.9 40.9 89 3.3 37.9
03:00 1012 29.88 841 24.83 4.9 40.8 89 3.3 38
03:05 1012 29.88 841 24.83 4.9 40.8 90 3.4 38.1
03:10 1012 29.88 841 24.83 4.9 40.7 91 3.4 38.2
03:15 1012 29.88 841 24.83 4.9 40.8 91 3.5 38.3
03:20 1012 29.88 842 24.86 4.8 40.7 91 3.5 38.2
03:25 1012 29.88 842 24.86 4.8 40.6 91 3.4 38.2
03:30 1012 29.88 842 24.86 4.8 40.6 91 3.4 38.2
03:35 1012 29.88 842 24.86 4.8 40.6 91 3.5 38.2
03:40 1012 29.88 842 24.86 4.8 40.6 91 3.5 38.2
03:45 1012 29.88 842 24.86 4.8 40.6 91 3.5 38.3
03:50 1012 29.88 842 24.86 4.8 40.7 92 3.6 38.4
03:55 1012 29.88 842 24.86 4.8 40.6 92 3.6 38.4
04:00 1012 29.88 842 24.86 4.8 40.6 92 3.5 38.4
04:05 1012 29.88 842 24.86 4.8 40.6 92 3.6 38.5
04:10 1012 29.88 842 24.86 4.8 40.7 92 3.6 38.5
04:15 1012 29.88 842 24.86 4.8 40.7 92 3.6 38.5
04:20 1012 29.88 842 24.86 4.8 40.6 92 3.6 38.5
04:25 1012 29.88 842 24.86 4.7 40.5 92 3.5 38.4
04:30 1012 29.88 842 24.86 4.6 40.4 92 3.5 38.2
04:35 1012 29.88 842 24.86 4.6 40.2 92 3.4 38.2
04:40 1012 29.88 842 24.86 4.6 40.2 93 3.5 38.3
04:45 1012 29.88 842 24.86 4.6 40.3 93 3.5 38.3
04:50 1013 29.91 842 24.86 4.6 40.4 93 3.6 38.4
04:55 1013 29.91 842 24.86 4.7 40.4 93 3.6 38.4
05:00 1013 29.91 842 24.86 4.7 40.4 93 3.6 38.4
05:05 1013 29.91 842 24.86 4.7 40.4 93 3.6 38.4
05:10 1013 29.91 842 24.86 4.6 40.4 92 3.5 38.3
05:15 1013 29.91 842 24.86 4.6 40.2 92 3.4 38.2
05:20 1013 29.91 842 24.86 4.5 40.1 92 3.3 38
05:25 1013 29.91 842 24.86 4.5 40.1 92 3.3 38
05:30 1013 29.91 842 24.86 4.5 40.1 92 3.4 38
05:35 1013 29.91 842 24.86 4.5 40 92 3.3 37.9
05:40 1013 29.91 842 24.86 4.5 40.1 92 3.3 37.9
05:45 1013 29.91 842 24.86 4.6 40.2 92 3.4 38.1
05:50 1013 29.91 842 24.86 4.5 40.2 92 3.4 38.1
05:55 1013 29.91 842 24.86 4.6 40.3 92 3.4 38.2
06:00 1013 29.91 842 24.86 4.6 40.3 92 3.5 38.3
06:05 1013 29.91 842 24.86 4.7 40.4 92 3.6 38.4
06:10 1013 29.91 842 24.86 4.7 40.4 92 3.5 38.3
06:15 1013 29.91 842 24.86 4.7 40.5 92 3.6 38.4
06:20 1013 29.91 842 24.86 4.7 40.5 92 3.5 38.3
06:25 1013 29.91 842 24.86 4.8 40.6 92 3.5 38.3
06:30 1013 29.91 842 24.86 4.7 40.5 91 3.4 38.1
06:35 1013 29.91 842 24.86 4.7 40.5 91 3.4 38.1
06:40 1013 29.91 842 24.86 4.7 40.5 91 3.3 38
06:45 1013 29.91 842 24.86 4.8 40.6 91 3.4 38.2
06:50 1013 29.91 842 24.86 4.8 40.7 91 3.5 38.2
06:55 1013 29.91 842 24.86 4.8 40.6 90 3.3 37.9
07:00 1013 29.91 842 24.86 4.8 40.6 90 3.2 37.8
07:05 1013 29.91 842 24.86 4.8 40.7 89 3.2 37.7
07:10 1013 29.91 842 24.86 5 40.9 89 3.3 37.9
07:15 1013 29.91 842 24.86 5 41 89 3.3 37.9
07:20 1013 29.91 842 24.86 5 41 89 3.3 37.9
07:25 1013 29.91 842 24.86 5.1 41.1 89 3.4 38.1
07:30 1013 29.91 842 24.86 5.2 41.3 89 3.6 38.4
07:35 1013 29.91 842 24.86 5.3 41.5 89 3.7 38.6
07:40 1013 29.91 842 24.86 5.4 41.7 89 3.8 38.8
07:45 1013 29.91 842 24.86 5.4 41.7 89 3.7 38.7
07:50 1013 29.91 842 24.86 5.4 41.7 90 3.8 38.9
07:55 1012 29.88 842 24.86 5.4 41.7 89 3.8 38.8
08:00 1012 29.88 842 24.86 5.4 41.8 89 3.8 38.8
08:05 1012 29.88 842 24.86 5.5 41.8 88 3.6 38.5
08:10 1013 29.91 842 24.86 5.5 41.9 88 3.7 38.6
08:15 1013 29.91 842 24.86 5.6 42 87 3.6 38.5
08:20 1013 29.91 842 24.86 5.6 42.1 86 3.4 38.1
08:25 1013 29.91 842 24.86 5.5 41.9 85 3.1 37.6
08:30 1013 29.91 842 24.86 5.5 41.9 85 3.3 37.9
08:35 1013 29.91 842 24.86 5.6 42.1 85 3.3 37.9
08:40 1013 29.91 842 24.86 5.6 42.2 85 3.4 38
08:45 1013 29.91 842 24.86 5.6 42.1 85 3.3 38
08:50 1013 29.91 842 24.86 5.6 42 84 3.1 37.6
08:55 1013 29.91 842 24.86 5.5 41.9 85 3.2 37.7
09:00 1013 29.91 842 24.86 5.5 41.9 85 3.1 37.6
09:05 1013 29.91 842 24.86 5.5 41.9 85 3.2 37.8
09:10 1013 29.91 842 24.86 5.6 42 86 3.3 38
09:15 1013 29.91 842 24.86 5.5 42 86 3.4 38.2
09:20 1013 29.91 842 24.86 5.6 42.1 87 3.6 38.4
09:25 1013 29.91 842 24.86 5.6 42.1 86 3.5 38.2
09:30 1013 29.91 842 24.86 5.6 42.1 86 3.4 38.1
09:35 1013 29.91 842 24.86 5.7 42.2 85 3.4 38.2
09:40 1013 29.91 842 24.86 5.7 42.2 84 3.2 37.7
09:45 1013 29.91 842 24.86 5.7 42.2 86 3.5 38.3
09:50 1013 29.91 842 24.86 5.7 42.3 85 3.5 38.3
09:55 1013 29.91 842 24.86 5.7 42.2 87 3.6 38.5
10:00 1013 29.91 842 24.86 5.7 42.3 86 3.5 38.3
10:05 1013 29.91 842 24.86 5.8 42.4 84 3.3 37.9
10:10 1013 29.91 842 24.86 5.7 42.3 85 3.4 38.2
10:15 1013 29.91 842 24.86 5.9 42.5 85 3.5 38.4
10:20 1013 29.91 842 24.86 5.9 42.7 86 3.7 38.7
10:25 1013 29.91 842 24.86 6 42.8 86 3.8 38.8
10:30 1013 29.91 842 24.86 6.1 42.9 85 3.7 38.7
10:35 1013 29.91 842 24.86 6.1 43 86 3.9 39
10:40 1013 29.91 842 24.86 6.1 43.1 85 3.8 38.9
10:45 1013 29.91 842 24.86 6.2 43.1 85 3.8 38.8
10:50 1013 29.91 842 24.86 6.1 43 85 3.8 38.8
10:55 1013 29.91 842 24.86 6.1 43 86 3.9 39.1
11:00 1013 29.91 842 24.86 6.3 43.3 86 4.1 39.4
11:05 1013 29.91 842 24.86 6.4 43.4 85 4 39.2
11:10 1013 29.91 842 24.86 6.3 43.3 84 3.8 38.8
11:15 1013 29.91 842 24.86 6.2 43.2 85 3.9 39.1
11:20 1013 29.91 842 24.86 6.4 43.6 84 4 39.2
11:25 1013 29.91 842 24.86 6.4 43.4 86 4.2 39.6
11:30 1013 29.91 842 24.86 6.3 43.4 86 4.1 39.4
11:35 1013 29.91 842 24.86 6.4 43.5 85 4.1 39.4
11:40 1013 29.91 842 24.86 6.4 43.6 85 4.1 39.3
11:45 1013 29.91 842 24.86 6.5 43.8 85 4.2 39.6
11:50 1013 29.91 842 24.86 6.4 43.6 85 4.1 39.4
11:55 1013 29.91 842 24.86 6.3 43.4 85 4.1 39.3
12:00 1013 29.91 842 24.86 6.2 43.2 85 3.9 38.9
12:05 1013 29.91 842 24.86 6.1 43 83 3.4 38.1
12:10 1013 29.91 842 24.86 6.3 43.3 81 3.2 37.8
12:15 1013 29.91 842 24.86 6.4 43.5 82 3.5 38.4
12:20 1013 29.91 842 24.86 6.5 43.8 83 3.9 39
12:25 1013 29.91 842 24.86 6.7 44 82 3.8 38.8
12:30 1013 29.91 842 24.86 6.6 44 81 3.6 38.5
12:35 1013 29.91 842 24.86 6.5 43.7 84 4 39.1
12:40 1013 29.91 842 24.86 6.6 44 82 3.8 38.9
12:45 1013 29.91 842 24.86 6.5 43.8 83 3.9 39
12:50 1013 29.91 842 24.86 6.5 43.7 84 4 39.2
12:55 1013 29.91 842 24.86 6.4 43.6 83 3.8 38.9
13:00 1013 29.91 842 24.86 6.3 43.3 85 4 39.1
13:05 1013 29.91 842 24.86 6.3 43.4 85 3.9 39.1
13:10 1013 29.91 842 24.86 6.5 43.6 84 3.9 39
13:15 1013 29.91 842 24.86 6.5 43.7 83 3.8 38.8
13:20 1013 29.91 842 24.86 6.4 43.5 83 3.7 38.7
13:25 1013 29.91 842 24.86 6.4 43.6 83 3.7 38.7
13:30 1013 29.91 842 24.86 6.5 43.7 83 3.8 38.8
13:35 1013 29.91 842 24.86 6.5 43.7 83 3.8 38.9
13:40 1013 29.91 842 24.86 6.4 43.6 83 3.7 38.7
13:45 1013 29.91 842 24.86 6.5 43.7 83 3.8 38.8
13:50 1013 29.91 842 24.86 6.6 43.8 83 3.9 39
13:55 1013 29.91 842 24.86 6.8 44.3 82 4 39.1
14:00 1013 29.91 842 24.86 6.7 44.1 83 4 39.3
14:05 1013 29.91 842 24.86 6.8 44.2 79 3.5 38.3
14:10 1013 29.91 842 24.86 6.7 44.1 83 4 39.2
14:15 1013 29.91 842 24.86 6.8 44.3 79 3.5 38.3
14:20 1013 29.91 842 24.86 6.8 44.3 80 3.7 38.6
14:25 1013 29.91 842 24.86 7 44.7 78 3.5 38.4
14:30 1013 29.91 842 24.86 7.2 44.9 76 3.2 37.7
14:35 1012 29.88 842 24.86 7.2 44.9 78 3.6 38.4
14:40 1012 29.88 842 24.86 7.3 45.1 77 3.6 38.4
14:45 1012 29.88 842 24.86 7.5 45.4 77 3.6 38.6
14:50 1012 29.88 841 24.83 7.8 46.1 76 3.9 39
14:55 1012 29.88 841 24.83 8 46.3 75 3.9 39
15:00 1012 29.88 841 24.83 8.1 46.6 72 3.4 38.1
15:05 1012 29.88 841 24.83 8 46.4 73 3.4 38.2
15:10 1012 29.88 841 24.83 7.9 46.2 74 3.6 38.5
15:15 1012 29.88 841 24.83 7.9 46.2 73 3.3 38
15:20 1012 29.88 841 24.83 8.1 46.6 73 3.5 38.3
15:25 1012 29.88 841 24.83 8.1 46.6 72 3.3 38
15:30 1012 29.88 841 24.83 8 46.5 73 3.4 38.2
15:35 1012 29.88 841 24.83 8.2 46.7 70 3.1 37.6
15:40 1012 29.88 841 24.83 8 46.5 71 3.1 37.6
15:45 1012 29.88 841 24.83 8 46.4 71 3.2 37.7
15:50 1012 29.88 841 24.83 7.9 46.2 73 3.4 38.1
15:55 1012 29.88 841 24.83 7.8 46 74 3.4 38
16:00 1012 29.88 841 24.83 7.8 46.1 73 3.2 37.8
16:05 1012 29.88 841 24.83 7.9 46.2 73 3.3 37.9
16:10 1012 29.88 841 24.83 7.9 46.3 73 3.4 38.2
16:15 1012 29.88 841 24.83 7.8 46.1 73 3.2 37.8
16:20 1012 29.88 841 24.83 7.8 46 74 3.5 38.3
16:25 1012 29.88 841 24.83 7.9 46.2 74 3.6 38.6
16:30 1012 29.88 841 24.83 7.9 46.3 77 4.1 39.3
16:35 1012 29.88 841 24.83 7.8 46 77 4 39.2
16:40 1012 29.88 841 24.83 7.6 45.6 79 4.2 39.5
16:45 1012 29.88 841 24.83 7.6 45.7 78 4 39.2
16:50 1012 29.88 841 24.83 7.7 45.8 76 3.8 38.8
16:55 1012 29.88 841 24.83 7.9 46.2 74 3.5 38.3
17:00 1012 29.88 841 24.83 7.9 46.3 75 3.8 38.9
17:05 1012 29.88 841 24.83 8.2 46.7 73 3.6 38.5
17:10 1012 29.88 841 24.83 8.3 46.9 74 3.9 39
17:15 1012 29.88 841 24.83 8.4 47.1 71 3.5 38.3
17:20 1012 29.88 841 24.83 8.5 47.3 69 3.2 37.8
17:25 1012 29.88 841 24.83 8.5 47.2 69 3.1 37.6
17:30 1012 29.88 841 24.83 8.5 47.3 69 3.2 37.8
17:35 1012 29.88 841 24.83 8.6 47.4 70 3.4 38.1
17:40 1012 29.88 841 24.83 8.5 47.3 69 3.2 37.7
17:45 1012 29.88 841 24.83 8.6 47.4 69 3.1 37.6
17:50 1012 29.88 841 24.83 8.6 47.4 69 3.3 37.9
17:55 1012 29.88 841 24.83 8.5 47.3 68 2.9 37.2
18:00 1012 29.88 841 24.83 8.5 47.2 68 2.9 37.3
18:05 1012 29.88 841 24.83 8.5 47.4 70 3.4 38.1
18:10 1012 29.88 841 24.83 8.7 47.6 71 3.7 38.7
18:15 1012 29.88 841 24.83 8.7 47.6 70 3.6 38.4
18:20 1012 29.88 841 24.83 8.6 47.4 68 3.1 37.6
18:25 1012 29.88 841 24.83 8.4 47.2 70 3.3 37.9
18:30 1012 29.88 841 24.83 8.4 47 69 3.1 37.6
18:35 1012 29.88 841 24.83 8.3 46.9 72 3.5 38.2
18:40 1012 29.88 841 24.83 8.2 46.8 71 3.3 37.9
18:45 1012 29.88 841 24.83 8.2 46.8 72 3.5 38.3
18:50 1012 29.88 841 24.83 8.2 46.7 72 3.5 38.3
18:55 1012 29.88 841 24.83 8.2 46.7 71 3.3 38
19:00 1012 29.88 841 24.83 8.1 46.7 74 3.7 38.7
19:05 1012 29.88 841 24.83 8.1 46.6 74 3.8 38.8
19:10 1012 29.88 841 24.83 8 46.3 77 4.2 39.6
19:15 1012 29.88 841 24.83 7.8 46 77 4.1 39.3
19:20 1012 29.88 841 24.83 7.7 45.8 78 4.2 39.5
19:25 1012 29.88 841 24.83 7.7 45.8 79 4.2 39.6
19:30 1012 29.88 841 24.83 7.6 45.7 79 4.2 39.5
19:35 1012 29.88 841 24.83 7.6 45.7 79 4.1 39.4
19:40 1012 29.88 841 24.83 7.6 45.7 80 4.4 39.9
19:45 1012 29.88 841 24.83 7.6 45.6 80 4.4 39.9
19:50 1012 29.88 841 24.83 7.5 45.6 80 4.2 39.6
19:55 1012 29.88 841 24.83 7.5 45.6 80 4.3 39.8
20:00 1012 29.88 841 24.83 7.4 45.4 81 4.4 39.9
20:05 1012 29.88 841 24.83 7.2 45 80 4.1 39.3
20:10 1012 29.88 841 24.83 7 44.6 79 3.7 38.6
20:15 1012 29.88 841 24.83 7 44.6 79 3.5 38.4
20:20 1012 29.88 841 24.83 6.9 44.5 78 3.4 38.1
20:25 1012 29.88 841 24.83 6.9 44.5 79 3.5 38.3
20:30 1012 29.88 841 24.83 6.9 44.4 80 3.7 38.7
20:35 1012 29.88 841 24.83 6.7 44.1 82 3.9 38.9
20:40 1012 29.88 841 24.83 6.5 43.8 84 4 39.1
20:45 1012 29.88 841 24.83 6.4 43.5 84 3.9 39.1
20:50 1012 29.88 841 24.83 6.3 43.4 84 3.8 38.9
20:55 1012 29.88 841 24.83 6.3 43.3 84 3.8 38.9
21:00 1012 29.88 841 24.83 6.3 43.3 84 3.8 38.9
21:05 1012 29.88 841 24.83 6.2 43.2 84 3.7 38.7
21:10 1012 29.88 841 24.83 6.2 43.1 82 3.3 37.9
21:15 1012 29.88 841 24.83 6.2 43.2 80 3.1 37.6
21:20 1012 29.88 841 24.83 6.3 43.3 78 2.7 36.8
21:25 1012 29.88 841 24.83 6.4 43.5 76 2.5 36.6
21:30 1012 29.88 841 24.83 6.4 43.5 77 2.8 37
21:35 1012 29.88 841 24.83 6.3 43.4 77 2.6 36.7
21:40 1012 29.88 841 24.83 6.3 43.3 78 2.7 36.8
21:45 1012 29.88 841 24.83 6.4 43.5 76 2.5 36.6
21:50 1012 29.88 841 24.83 6.5 43.7 76 2.5 36.5
21:55 1012 29.88 841 24.83 6.5 43.8 75 2.5 36.5
22:00 1012 29.88 841 24.83 6.6 43.9 76 2.7 36.8
22:05 1012 29.88 841 24.83 6.5 43.8 77 2.8 37
22:10 1012 29.88 841 24.83 6.4 43.5 78 2.8 37.1
22:15 1012 29.88 841 24.83 6.3 43.3 78 2.8 37
22:20 1012 29.88 841 24.83 6.3 43.3 78 2.7 36.8
22:25 1012 29.88 841 24.83 6.2 43.1 78 2.6 36.7
22:30 1012 29.88 841 24.83 6.1 42.9 78 2.6 36.7
22:35 1012 29.88 841 24.83 6 42.9 78 2.5 36.5
22:40 1012 29.88 841 24.83 6 42.8 77 2.4 36.3
22:45 1012 29.88 841 24.83 6 42.9 78 2.4 36.4
22:50 1012 29.88 841 24.83 6 42.8 78 2.5 36.5
22:55 1012 29.88 841 24.83 6 42.7 79 2.6 36.6
23:00 1012 29.88 841 24.83 6 42.8 80 2.8 37
23:05 1012 29.88 841 24.83 6 42.8 79 2.7 36.9
23:10 1012 29.88 841 24.83 6 42.9 80 2.9 37.2
23:15 1012 29.88 841 24.83 6.1 42.9 80 2.9 37.2
23:20 1012 29.88 841 24.83 6.2 43.1 79 2.8 37.1
23:25 1012 29.88 841 24.83 6.3 43.3 78 2.8 37
23:30 1012 29.88 841 24.83 6.4 43.4 78 2.7 36.9
23:35 1012 29.88 841 24.83 6.3 43.4 79 2.9 37.3
23:40 1012 29.88 841 24.83 6.3 43.3 80 3.1 37.5
23:45 1012 29.88 841 24.83 6.2 43.2 81 3.2 37.7
23:50 1012 29.88 841 24.83 6.2 43.1 80 3 37.3
23:55 1012 29.88 841 24.83 6.2 43.1 81 3.1 37.5
24:00 1012 29.88 841 24.83 6.2 43.1 81 3.2 37.8